sensor_id;sensor_type;location;lat;lon;timestamp;P1;durP1;ratioP1;P2;durP2;ratioP2
10295;SDS011;5193;51.032;6.356;2023-04-03T00:00:22;10.40;;;4.27;;
10295;SDS011;5193;51.032;6.356;2023-04-03T00:02:48;7.63;;;4.00;;
10295;SDS011;5193;51.032;6.356;2023-04-03T00:05:13;10.00;;;3.70;;
10295;SDS011;5193;51.032;6.356;2023-04-03T00:07:39;10.67;;;3.90;;
10295;SDS011;5193;51.032;6.356;2023-04-03T00:10:05;10.47;;;4.07;;
10295;SDS011;5193;51.032;6.356;2023-04-03T00:12:31;8.67;;;4.10;;
10295;SDS011;5193;51.032;6.356;2023-04-03T00:14:56;6.97;;;3.57;;
10295;SDS011;5193;51.032;6.356;2023-04-03T00:17:22;7.23;;;4.10;;
10295;SDS011;5193;51.032;6.356;2023-04-03T00:19:47;15.37;;;4.37;;
10295;SDS011;5193;51.032;6.356;2023-04-03T00:22:13;7.43;;;4.10;;
10295;SDS011;5193;51.032;6.356;2023-04-03T00:24:39;5.73;;;4.10;;
10295;SDS011;5193;51.032;6.356;2023-04-03T00:27:04;8.77;;;4.10;;
10295;SDS011;5193;51.032;6.356;2023-04-03T00:29:30;10.50;;;4.47;;
10295;SDS011;5193;51.032;6.356;2023-04-03T00:31:55;8.33;;;4.23;;
10295;SDS011;5193;51.032;6.356;2023-04-03T00:34:21;10.87;;;4.93;;
10295;SDS011;5193;51.032;6.356;2023-04-03T00:36:46;7.23;;;4.40;;
10295;SDS011;5193;51.032;6.356;2023-04-03T00:39:12;10.53;;;3.80;;
10295;SDS011;5193;51.032;6.356;2023-04-03T00:41:37;7.33;;;4.37;;
10295;SDS011;5193;51.032;6.356;2023-04-03T00:44:19;5.67;;;3.97;;
10295;SDS011;5193;51.032;6.356;2023-04-03T00:47:05;5.33;;;3.90;;
10295;SDS011;5193;51.032;6.356;2023-04-03T00:49:33;6.77;;;3.77;;
10295;SDS011;5193;51.032;6.356;2023-04-03T00:52:00;10.20;;;4.27;;
10295;SDS011;5193;51.032;6.356;2023-04-03T00:54:26;8.27;;;4.30;;
10295;SDS011;5193;51.032;6.356;2023-04-03T00:56:52;11.60;;;4.13;;
10295;SDS011;5193;51.032;6.356;2023-04-03T00:59:21;6.43;;;4.03;;
10295;SDS011;5193;51.032;6.356;2023-04-03T01:01:51;5.43;;;3.90;;
10295;SDS011;5193;51.032;6.356;2023-04-03T01:06:53;8.70;;;4.27;;
10295;SDS011;5193;51.032;6.356;2023-04-03T01:09:21;6.10;;;4.30;;
10295;SDS011;5193;51.032;6.356;2023-04-03T01:11:47;4.87;;;4.37;;
10295;SDS011;5193;51.032;6.356;2023-04-03T01:14:12;6.67;;;4.73;;
10295;SDS011;5193;51.032;6.356;2023-04-03T01:16:38;5.47;;;4.20;;
10295;SDS011;5193;51.032;6.356;2023-04-03T01:19:05;9.47;;;4.60;;
10295;SDS011;5193;51.032;6.356;2023-04-03T01:21:48;7.37;;;4.47;;
10295;SDS011;5193;51.032;6.356;2023-04-03T01:24:31;7.47;;;4.57;;
10295;SDS011;5193;51.032;6.356;2023-04-03T01:27:04;8.50;;;4.37;;
10295;SDS011;5193;51.032;6.356;2023-04-03T01:29:32;7.93;;;5.07;;
10295;SDS011;5193;51.032;6.356;2023-04-03T01:31:58;9.77;;;5.00;;
10295;SDS011;5193;51.032;6.356;2023-04-03T01:34:26;9.97;;;5.03;;
10295;SDS011;5193;51.032;6.356;2023-04-03T01:36:53;7.60;;;4.53;;
10295;SDS011;5193;51.032;6.356;2023-04-03T01:39:19;7.27;;;4.50;;
10295;SDS011;5193;51.032;6.356;2023-04-03T01:41:45;7.13;;;4.80;;
10295;SDS011;5193;51.032;6.356;2023-04-03T01:44:11;6.07;;;4.20;;
10295;SDS011;5193;51.032;6.356;2023-04-03T01:46:37;9.13;;;4.40;;
10295;SDS011;5193;51.032;6.356;2023-04-03T01:49:03;8.50;;;5.00;;
10295;SDS011;5193;51.032;6.356;2023-04-03T01:51:29;10.33;;;4.53;;
10295;SDS011;5193;51.032;6.356;2023-04-03T01:53:55;10.67;;;5.00;;
10295;SDS011;5193;51.032;6.356;2023-04-03T01:56:21;6.70;;;4.40;;
10295;SDS011;5193;51.032;6.356;2023-04-03T01:58:47;7.07;;;4.60;;
10295;SDS011;5193;51.032;6.356;2023-04-03T02:01:13;7.97;;;5.00;;
10295;SDS011;5193;51.032;6.356;2023-04-03T02:03:38;6.93;;;4.93;;
10295;SDS011;5193;51.032;6.356;2023-04-03T02:06:04;6.67;;;4.60;;
10295;SDS011;5193;51.032;6.356;2023-04-03T02:08:30;6.17;;;4.80;;
10295;SDS011;5193;51.032;6.356;2023-04-03T02:10:55;7.47;;;5.03;;
10295;SDS011;5193;51.032;6.356;2023-04-03T02:13:21;7.10;;;5.10;;
10295;SDS011;5193;51.032;6.356;2023-04-03T02:15:47;7.43;;;5.10;;
10295;SDS011;5193;51.032;6.356;2023-04-03T02:18:12;7.67;;;5.23;;
10295;SDS011;5193;51.032;6.356;2023-04-03T02:20:38;8.23;;;5.27;;
10295;SDS011;5193;51.032;6.356;2023-04-03T02:23:04;7.00;;;5.20;;
10295;SDS011;5193;51.032;6.356;2023-04-03T02:25:30;11.93;;;6.33;;
10295;SDS011;5193;51.032;6.356;2023-04-03T02:27:57;10.83;;;6.30;;
10295;SDS011;5193;51.032;6.356;2023-04-03T02:30:23;9.67;;;6.63;;
10295;SDS011;5193;51.032;6.356;2023-04-03T02:32:48;8.00;;;6.40;;
10295;SDS011;5193;51.032;6.356;2023-04-03T02:35:14;11.90;;;7.00;;
10295;SDS011;5193;51.032;6.356;2023-04-03T02:37:39;10.83;;;7.63;;
10295;SDS011;5193;51.032;6.356;2023-04-03T02:40:05;11.87;;;7.93;;
10295;SDS011;5193;51.032;6.356;2023-04-03T02:42:32;12.53;;;8.47;;
10295;SDS011;5193;51.032;6.356;2023-04-03T02:44:57;10.87;;;8.43;;
10295;SDS011;5193;51.032;6.356;2023-04-03T02:47:25;14.13;;;9.03;;
10295;SDS011;5193;51.032;6.356;2023-04-03T02:49:51;17.17;;;9.17;;
10295;SDS011;5193;51.032;6.356;2023-04-03T02:52:17;13.60;;;8.27;;
10295;SDS011;5193;51.032;6.356;2023-04-03T02:54:43;15.33;;;8.80;;
10295;SDS011;5193;51.032;6.356;2023-04-03T02:57:09;12.33;;;8.33;;
10295;SDS011;5193;51.032;6.356;2023-04-03T02:59:38;9.63;;;8.03;;
10295;SDS011;5193;51.032;6.356;2023-04-03T03:02:07;10.37;;;7.60;;
10295;SDS011;5193;51.032;6.356;2023-04-03T03:04:34;9.63;;;7.67;;
10295;SDS011;5193;51.032;6.356;2023-04-03T03:07:00;15.10;;;7.07;;
10295;SDS011;5193;51.032;6.356;2023-04-03T03:09:26;12.37;;;7.43;;
10295;SDS011;5193;51.032;6.356;2023-04-03T03:11:51;15.13;;;7.90;;
10295;SDS011;5193;51.032;6.356;2023-04-03T03:14:17;10.20;;;7.03;;
10295;SDS011;5193;51.032;6.356;2023-04-03T03:16:43;8.03;;;7.00;;
10295;SDS011;5193;51.032;6.356;2023-04-03T03:19:08;9.33;;;6.30;;
10295;SDS011;5193;51.032;6.356;2023-04-03T03:21:34;8.13;;;6.37;;
10295;SDS011;5193;51.032;6.356;2023-04-03T03:24:00;11.70;;;6.53;;
10295;SDS011;5193;51.032;6.356;2023-04-03T03:26:25;9.37;;;6.57;;
10295;SDS011;5193;51.032;6.356;2023-04-03T03:28:51;8.87;;;6.03;;
10295;SDS011;5193;51.032;6.356;2023-04-03T03:31:16;9.17;;;6.20;;
10295;SDS011;5193;51.032;6.356;2023-04-03T03:33:42;11.47;;;6.33;;
10295;SDS011;5193;51.032;6.356;2023-04-03T03:36:08;7.83;;;6.07;;
10295;SDS011;5193;51.032;6.356;2023-04-03T03:38:33;7.37;;;5.77;;
10295;SDS011;5193;51.032;6.356;2023-04-03T03:40:59;10.60;;;6.60;;
10295;SDS011;5193;51.032;6.356;2023-04-03T03:43:25;13.23;;;7.40;;
10295;SDS011;5193;51.032;6.356;2023-04-03T03:45:51;9.80;;;7.00;;
10295;SDS011;5193;51.032;6.356;2023-04-03T03:48:17;9.33;;;7.40;;
10295;SDS011;5193;51.032;6.356;2023-04-03T03:50:43;14.57;;;6.93;;
10295;SDS011;5193;51.032;6.356;2023-04-03T03:53:09;10.80;;;7.27;;
10295;SDS011;5193;51.032;6.356;2023-04-03T03:55:34;10.37;;;6.77;;
10295;SDS011;5193;51.032;6.356;2023-04-03T03:58:00;8.53;;;6.67;;
10295;SDS011;5193;51.032;6.356;2023-04-03T04:00:26;13.10;;;7.30;;
10295;SDS011;5193;51.032;6.356;2023-04-03T04:02:53;9.70;;;6.40;;
10295;SDS011;5193;51.032;6.356;2023-04-03T04:05:18;10.07;;;7.00;;
10295;SDS011;5193;51.032;6.356;2023-04-03T04:07:44;10.23;;;6.33;;
10295;SDS011;5193;51.032;6.356;2023-04-03T04:10:10;11.23;;;6.60;;
10295;SDS011;5193;51.032;6.356;2023-04-03T04:12:36;11.13;;;7.10;;
10295;SDS011;5193;51.032;6.356;2023-04-03T04:15:01;13.80;;;7.80;;
10295;SDS011;5193;51.032;6.356;2023-04-03T04:17:28;10.40;;;6.83;;
10295;SDS011;5193;51.032;6.356;2023-04-03T04:19:53;14.87;;;6.70;;
10295;SDS011;5193;51.032;6.356;2023-04-03T04:22:19;10.33;;;6.43;;
10295;SDS011;5193;51.032;6.356;2023-04-03T04:24:44;9.30;;;6.70;;
10295;SDS011;5193;51.032;6.356;2023-04-03T04:27:10;11.27;;;6.10;;
10295;SDS011;5193;51.032;6.356;2023-04-03T04:29:36;10.27;;;5.80;;
10295;SDS011;5193;51.032;6.356;2023-04-03T04:32:02;7.47;;;5.53;;
10295;SDS011;5193;51.032;6.356;2023-04-03T04:34:29;9.27;;;6.17;;
10295;SDS011;5193;51.032;6.356;2023-04-03T04:36:55;11.77;;;6.47;;
10295;SDS011;5193;51.032;6.356;2023-04-03T04:39:20;9.67;;;6.00;;
10295;SDS011;5193;51.032;6.356;2023-04-03T04:41:46;7.80;;;6.13;;
10295;SDS011;5193;51.032;6.356;2023-04-03T04:44:11;9.13;;;6.63;;
10295;SDS011;5193;51.032;6.356;2023-04-03T04:46:37;8.60;;;6.17;;
10295;SDS011;5193;51.032;6.356;2023-04-03T04:49:02;10.03;;;6.23;;
10295;SDS011;5193;51.032;6.356;2023-04-03T04:51:28;14.10;;;6.23;;
10295;SDS011;5193;51.032;6.356;2023-04-03T04:53:54;14.00;;;7.50;;
10295;SDS011;5193;51.032;6.356;2023-04-03T04:56:20;11.87;;;7.23;;
10295;SDS011;5193;51.032;6.356;2023-04-03T04:58:46;11.40;;;7.60;;
10295;SDS011;5193;51.032;6.356;2023-04-03T05:01:12;12.37;;;7.80;;
10295;SDS011;5193;51.032;6.356;2023-04-03T05:03:38;11.37;;;7.43;;
10295;SDS011;5193;51.032;6.356;2023-04-03T05:06:03;11.90;;;7.77;;
10295;SDS011;5193;51.032;6.356;2023-04-03T05:08:29;12.73;;;7.47;;
10295;SDS011;5193;51.032;6.356;2023-04-03T05:10:55;12.60;;;7.50;;
10295;SDS011;5193;51.032;6.356;2023-04-03T05:13:21;10.70;;;7.40;;
10295;SDS011;5193;51.032;6.356;2023-04-03T05:15:47;10.53;;;7.60;;
10295;SDS011;5193;51.032;6.356;2023-04-03T05:18:13;10.83;;;7.37;;
10295;SDS011;5193;51.032;6.356;2023-04-03T05:20:38;12.17;;;7.77;;
10295;SDS011;5193;51.032;6.356;2023-04-03T05:23:04;12.50;;;7.17;;
10295;SDS011;5193;51.032;6.356;2023-04-03T05:25:30;14.37;;;7.00;;
10295;SDS011;5193;51.032;6.356;2023-04-03T05:27:56;11.40;;;6.83;;
10295;SDS011;5193;51.032;6.356;2023-04-03T05:30:21;13.90;;;8.90;;
10295;SDS011;5193;51.032;6.356;2023-04-03T05:32:47;11.50;;;7.07;;
10295;SDS011;5193;51.032;6.356;2023-04-03T05:35:13;13.47;;;7.03;;
10295;SDS011;5193;51.032;6.356;2023-04-03T05:37:39;10.77;;;7.27;;
10295;SDS011;5193;51.032;6.356;2023-04-03T05:40:05;9.30;;;6.10;;
10295;SDS011;5193;51.032;6.356;2023-04-03T05:42:32;11.27;;;6.20;;
10295;SDS011;5193;51.032;6.356;2023-04-03T05:44:57;9.30;;;5.17;;
10295;SDS011;5193;51.032;6.356;2023-04-03T05:47:23;8.47;;;6.33;;
10295;SDS011;5193;51.032;6.356;2023-04-03T05:49:48;11.73;;;6.10;;
10295;SDS011;5193;51.032;6.356;2023-04-03T05:52:27;8.87;;;5.73;;
10295;SDS011;5193;51.032;6.356;2023-04-03T05:54:55;11.23;;;5.50;;
10295;SDS011;5193;51.032;6.356;2023-04-03T05:57:20;12.10;;;6.10;;
10295;SDS011;5193;51.032;6.356;2023-04-03T05:59:46;10.77;;;5.80;;
10295;SDS011;5193;51.032;6.356;2023-04-03T06:02:13;12.20;;;6.10;;
10295;SDS011;5193;51.032;6.356;2023-04-03T06:04:40;12.33;;;6.10;;
10295;SDS011;5193;51.032;6.356;2023-04-03T06:07:06;11.23;;;5.63;;
10295;SDS011;5193;51.032;6.356;2023-04-03T06:09:34;10.53;;;6.03;;
10295;SDS011;5193;51.032;6.356;2023-04-03T06:12:00;8.90;;;5.53;;
10295;SDS011;5193;51.032;6.356;2023-04-03T06:14:26;13.27;;;5.70;;
10295;SDS011;5193;51.032;6.356;2023-04-03T06:16:52;12.63;;;6.10;;
10295;SDS011;5193;51.032;6.356;2023-04-03T06:19:19;10.77;;;5.70;;
10295;SDS011;5193;51.032;6.356;2023-04-03T06:21:45;9.07;;;5.03;;
10295;SDS011;5193;51.032;6.356;2023-04-03T06:24:12;12.10;;;5.37;;
10295;SDS011;5193;51.032;6.356;2023-04-03T06:26:40;9.70;;;5.40;;
10295;SDS011;5193;51.032;6.356;2023-04-03T06:29:07;11.47;;;5.30;;
10295;SDS011;5193;51.032;6.356;2023-04-03T06:31:33;10.80;;;5.73;;
10295;SDS011;5193;51.032;6.356;2023-04-03T06:33:58;9.40;;;5.40;;
10295;SDS011;5193;51.032;6.356;2023-04-03T06:36:24;12.77;;;5.27;;
10295;SDS011;5193;51.032;6.356;2023-04-03T06:38:50;9.37;;;4.50;;
10295;SDS011;5193;51.032;6.356;2023-04-03T06:41:16;8.63;;;4.53;;
10295;SDS011;5193;51.032;6.356;2023-04-03T06:43:42;9.27;;;4.87;;
10295;SDS011;5193;51.032;6.356;2023-04-03T06:46:19;6.67;;;4.77;;
10295;SDS011;5193;51.032;6.356;2023-04-03T06:48:47;12.40;;;5.03;;
10295;SDS011;5193;51.032;6.356;2023-04-03T06:51:17;11.63;;;4.80;;
10295;SDS011;5193;51.032;6.356;2023-04-03T06:53:44;9.03;;;5.00;;
10295;SDS011;5193;51.032;6.356;2023-04-03T06:56:11;9.30;;;4.57;;
10295;SDS011;5193;51.032;6.356;2023-04-03T06:58:36;9.30;;;4.30;;
10295;SDS011;5193;51.032;6.356;2023-04-03T07:01:02;9.17;;;3.93;;
10295;SDS011;5193;51.032;6.356;2023-04-03T07:03:28;5.70;;;3.70;;
10295;SDS011;5193;51.032;6.356;2023-04-03T07:05:53;9.30;;;3.90;;
10295;SDS011;5193;51.032;6.356;2023-04-03T07:08:19;6.97;;;4.03;;
10295;SDS011;5193;51.032;6.356;2023-04-03T07:10:45;12.17;;;4.50;;
10295;SDS011;5193;51.032;6.356;2023-04-03T07:13:10;9.87;;;4.23;;
10295;SDS011;5193;51.032;6.356;2023-04-03T07:15:36;10.33;;;4.77;;
10295;SDS011;5193;51.032;6.356;2023-04-03T07:18:01;6.33;;;4.33;;
10295;SDS011;5193;51.032;6.356;2023-04-03T07:20:27;8.70;;;4.00;;
10295;SDS011;5193;51.032;6.356;2023-04-03T07:22:53;7.53;;;3.87;;
10295;SDS011;5193;51.032;6.356;2023-04-03T07:25:19;6.43;;;3.70;;
10295;SDS011;5193;51.032;6.356;2023-04-03T07:27:44;7.20;;;3.10;;
10295;SDS011;5193;51.032;6.356;2023-04-03T07:30:10;6.43;;;3.40;;
10295;SDS011;5193;51.032;6.356;2023-04-03T07:32:36;8.37;;;3.07;;
10295;SDS011;5193;51.032;6.356;2023-04-03T07:35:02;8.33;;;3.30;;
10295;SDS011;5193;51.032;6.356;2023-04-03T07:37:28;4.80;;;2.90;;
10295;SDS011;5193;51.032;6.356;2023-04-03T07:39:54;6.10;;;3.47;;
10295;SDS011;5193;51.032;6.356;2023-04-03T07:42:20;10.37;;;4.00;;
10295;SDS011;5193;51.032;6.356;2023-04-03T07:44:46;6.10;;;3.30;;
10295;SDS011;5193;51.032;6.356;2023-04-03T07:47:12;6.33;;;3.10;;
10295;SDS011;5193;51.032;6.356;2023-04-03T07:49:39;7.23;;;3.00;;
10295;SDS011;5193;51.032;6.356;2023-04-03T07:52:05;7.67;;;3.30;;
10295;SDS011;5193;51.032;6.356;2023-04-03T07:54:32;11.93;;;3.57;;
10295;SDS011;5193;51.032;6.356;2023-04-03T07:56:58;8.10;;;3.60;;
10295;SDS011;5193;51.032;6.356;2023-04-03T07:59:24;5.47;;;3.30;;
10295;SDS011;5193;51.032;6.356;2023-04-03T08:01:50;12.27;;;3.23;;
10295;SDS011;5193;51.032;6.356;2023-04-03T08:04:15;11.50;;;3.53;;
10295;SDS011;5193;51.032;6.356;2023-04-03T08:06:41;7.23;;;3.13;;
10295;SDS011;5193;51.032;6.356;2023-04-03T08:09:06;9.47;;;4.67;;
10295;SDS011;5193;51.032;6.356;2023-04-03T08:11:32;8.47;;;3.63;;
10295;SDS011;5193;51.032;6.356;2023-04-03T08:13:57;10.63;;;4.37;;
10295;SDS011;5193;51.032;6.356;2023-04-03T08:16:23;6.00;;;3.00;;
10295;SDS011;5193;51.032;6.356;2023-04-03T08:18:51;7.97;;;3.60;;
10295;SDS011;5193;51.032;6.356;2023-04-03T08:21:17;8.30;;;4.03;;
10295;SDS011;5193;51.032;6.356;2023-04-03T08:23:43;4.73;;;2.47;;
10295;SDS011;5193;51.032;6.356;2023-04-03T08:26:09;9.83;;;3.00;;
10295;SDS011;5193;51.032;6.356;2023-04-03T08:28:35;5.37;;;2.30;;
10295;SDS011;5193;51.032;6.356;2023-04-03T08:31:05;6.33;;;3.33;;
10295;SDS011;5193;51.032;6.356;2023-04-03T08:33:32;6.33;;;2.10;;
10295;SDS011;5193;51.032;6.356;2023-04-03T08:36:00;7.33;;;3.87;;
10295;SDS011;5193;51.032;6.356;2023-04-03T08:38:27;7.57;;;4.07;;
10295;SDS011;5193;51.032;6.356;2023-04-03T08:41:14;4.50;;;2.73;;
10295;SDS011;5193;51.032;6.356;2023-04-03T08:47:02;6.37;;;2.70;;
10295;SDS011;5193;51.032;6.356;2023-04-03T08:49:57;7.63;;;2.77;;
10295;SDS011;5193;51.032;6.356;2023-04-03T08:54:57;5.00;;;2.40;;
10295;SDS011;5193;51.032;6.356;2023-04-03T08:57:41;5.53;;;1.97;;
10295;SDS011;5193;51.032;6.356;2023-04-03T09:02:46;4.10;;;1.40;;
10295;SDS011;5193;51.032;6.356;2023-04-03T09:05:17;3.80;;;1.70;;
10295;SDS011;5193;51.032;6.356;2023-04-03T09:07:46;5.80;;;2.10;;
10295;SDS011;5193;51.032;6.356;2023-04-03T09:10:19;4.27;;;1.43;;
10295;SDS011;5193;51.032;6.356;2023-04-03T09:13:39;2.73;;;1.50;;
10295;SDS011;5193;51.032;6.356;2023-04-03T09:15:51;5.17;;;1.80;;
10295;SDS011;5193;51.032;6.356;2023-04-03T09:26:19;5.07;;;1.90;;
10295;SDS011;5193;51.032;6.356;2023-04-03T09:28:46;2.90;;;1.57;;
10295;SDS011;5193;51.032;6.356;2023-04-03T09:31:22;5.97;;;2.60;;
10295;SDS011;5193;51.032;6.356;2023-04-03T09:33:50;4.60;;;1.70;;
10295;SDS011;5193;51.032;6.356;2023-04-03T09:39:04;5.23;;;1.97;;
10295;SDS011;5193;51.032;6.356;2023-04-03T09:41:34;3.33;;;1.10;;
10295;SDS011;5193;51.032;6.356;2023-04-03T09:44:00;7.57;;;2.77;;
10295;SDS011;5193;51.032;6.356;2023-04-03T09:46:30;3.90;;;1.70;;
10295;SDS011;5193;51.032;6.356;2023-04-03T09:49:02;7.23;;;2.00;;
10295;SDS011;5193;51.032;6.356;2023-04-03T09:51:29;3.83;;;2.00;;
10295;SDS011;5193;51.032;6.356;2023-04-03T09:53:56;3.87;;;1.87;;
10295;SDS011;5193;51.032;6.356;2023-04-03T09:56:23;7.57;;;1.70;;
10295;SDS011;5193;51.032;6.356;2023-04-03T10:01:32;10.57;;;3.43;;
10295;SDS011;5193;51.032;6.356;2023-04-03T10:06:38;8.93;;;3.53;;
10295;SDS011;5193;51.032;6.356;2023-04-03T10:09:27;7.53;;;2.57;;
10295;SDS011;5193;51.032;6.356;2023-04-03T10:14:30;9.77;;;3.90;;
10295;SDS011;5193;51.032;6.356;2023-04-03T10:19:41;9.27;;;3.23;;
10295;SDS011;5193;51.032;6.356;2023-04-03T10:33:24;2.23;;;1.10;;
10295;SDS011;5193;51.032;6.356;2023-04-03T10:47:32;2.47;;;1.07;;
10295;SDS011;5193;51.032;6.356;2023-04-03T10:52:48;4.77;;;1.90;;
10295;SDS011;5193;51.032;6.356;2023-04-03T10:55:21;4.67;;;1.43;;
10295;SDS011;5193;51.032;6.356;2023-04-03T11:01:01;2.80;;;1.20;;
10295;SDS011;5193;51.032;6.356;2023-04-03T11:03:56;2.50;;;1.30;;
10295;SDS011;5193;51.032;6.356;2023-04-03T11:06:24;4.23;;;1.13;;
10295;SDS011;5193;51.032;6.356;2023-04-03T11:09:11;2.73;;;1.10;;
10295;SDS011;5193;51.032;6.356;2023-04-03T11:11:43;4.47;;;1.30;;
10295;SDS011;5193;51.032;6.356;2023-04-03T11:16:42;2.83;;;1.30;;
10295;SDS011;5193;51.032;6.356;2023-04-03T11:19:14;5.13;;;1.30;;
10295;SDS011;5193;51.032;6.356;2023-04-03T11:24:50;2.03;;;0.83;;
10295;SDS011;5193;51.032;6.356;2023-04-03T11:27:23;2.77;;;1.10;;
10295;SDS011;5193;51.032;6.356;2023-04-03T11:29:50;1.83;;;1.10;;
10295;SDS011;5193;51.032;6.356;2023-04-03T11:32:34;5.37;;;1.40;;
10295;SDS011;5193;51.032;6.356;2023-04-03T11:35:13;2.37;;;1.50;;
10295;SDS011;5193;51.032;6.356;2023-04-03T11:37:41;2.73;;;1.40;;
10295;SDS011;5193;51.032;6.356;2023-04-03T11:42:41;2.83;;;1.20;;
10295;SDS011;5193;51.032;6.356;2023-04-03T11:47:49;3.50;;;1.20;;
10295;SDS011;5193;51.032;6.356;2023-04-03T12:05:55;6.90;;;1.37;;
10295;SDS011;5193;51.032;6.356;2023-04-03T12:19:48;2.53;;;1.20;;
10295;SDS011;5193;51.032;6.356;2023-04-03T12:24:29;8.00;;;3.20;;
10295;SDS011;5193;51.032;6.356;2023-04-03T12:29:37;2.17;;;1.10;;
10295;SDS011;5193;51.032;6.356;2023-04-03T12:45:24;3.17;;;1.53;;
10295;SDS011;5193;51.032;6.356;2023-04-03T12:47:52;4.30;;;1.53;;
10295;SDS011;5193;51.032;6.356;2023-04-03T12:50:23;4.03;;;0.93;;
10295;SDS011;5193;51.032;6.356;2023-04-03T12:52:59;4.70;;;1.10;;
10295;SDS011;5193;51.032;6.356;2023-04-03T12:55:27;5.33;;;1.70;;
10295;SDS011;5193;51.032;6.356;2023-04-03T12:57:53;2.63;;;1.13;;
10295;SDS011;5193;51.032;6.356;2023-04-03T13:00:29;4.13;;;1.17;;
10295;SDS011;5193;51.032;6.356;2023-04-03T13:03:01;3.83;;;1.37;;
10295;SDS011;5193;51.032;6.356;2023-04-03T13:05:28;2.37;;;1.33;;
10295;SDS011;5193;51.032;6.356;2023-04-03T13:07:58;1.73;;;1.20;;
10295;SDS011;5193;51.032;6.356;2023-04-03T13:10:26;4.43;;;1.23;;
10295;SDS011;5193;51.032;6.356;2023-04-03T13:12:59;3.13;;;1.60;;
10295;SDS011;5193;51.032;6.356;2023-04-03T13:15:41;2.07;;;1.10;;
10295;SDS011;5193;51.032;6.356;2023-04-03T13:18:22;2.57;;;1.17;;
10295;SDS011;5193;51.032;6.356;2023-04-03T13:20:48;1.67;;;1.00;;
10295;SDS011;5193;51.032;6.356;2023-04-03T13:23:14;4.80;;;1.60;;
10295;SDS011;5193;51.032;6.356;2023-04-03T13:25:46;3.97;;;1.40;;
10295;SDS011;5193;51.032;6.356;2023-04-03T13:28:14;1.73;;;1.07;;
10295;SDS011;5193;51.032;6.356;2023-04-03T13:30:55;4.50;;;0.90;;
10295;SDS011;5193;51.032;6.356;2023-04-03T13:33:24;3.57;;;1.57;;
10295;SDS011;5193;51.032;6.356;2023-04-03T13:35:56;4.73;;;1.60;;
10295;SDS011;5193;51.032;6.356;2023-04-03T13:38:27;1.27;;;1.03;;
10295;SDS011;5193;51.032;6.356;2023-04-03T13:41:00;2.20;;;0.97;;
10295;SDS011;5193;51.032;6.356;2023-04-03T13:43:31;1.20;;;0.90;;
10295;SDS011;5193;51.032;6.356;2023-04-03T13:46:03;1.90;;;1.10;;
10295;SDS011;5193;51.032;6.356;2023-04-03T13:48:35;2.30;;;1.20;;
10295;SDS011;5193;51.032;6.356;2023-04-03T13:53:43;1.23;;;0.73;;
10295;SDS011;5193;51.032;6.356;2023-04-03T13:56:16;1.57;;;0.80;;
10295;SDS011;5193;51.032;6.356;2023-04-03T13:59:33;4.50;;;1.20;;
10295;SDS011;5193;51.032;6.356;2023-04-03T14:01:43;1.37;;;1.00;;
10295;SDS011;5193;51.032;6.356;2023-04-03T14:04:21;2.97;;;0.87;;
10295;SDS011;5193;51.032;6.356;2023-04-03T14:06:50;2.83;;;1.10;;
10295;SDS011;5193;51.032;6.356;2023-04-03T14:09:17;5.23;;;1.17;;
10295;SDS011;5193;51.032;6.356;2023-04-03T14:11:43;1.87;;;0.77;;
10295;SDS011;5193;51.032;6.356;2023-04-03T14:14:17;4.57;;;1.20;;
10295;SDS011;5193;51.032;6.356;2023-04-03T14:16:47;3.63;;;1.00;;
10295;SDS011;5193;51.032;6.356;2023-04-03T14:19:18;2.60;;;0.90;;
10295;SDS011;5193;51.032;6.356;2023-04-03T14:21:56;2.30;;;1.00;;
10295;SDS011;5193;51.032;6.356;2023-04-03T14:24:22;2.87;;;1.03;;
10295;SDS011;5193;51.032;6.356;2023-04-03T14:26:48;5.80;;;1.30;;
10295;SDS011;5193;51.032;6.356;2023-04-03T14:29:18;1.80;;;1.00;;
10295;SDS011;5193;51.032;6.356;2023-04-03T14:31:44;2.63;;;1.00;;
10295;SDS011;5193;51.032;6.356;2023-04-03T14:34:11;4.63;;;1.50;;
10295;SDS011;5193;51.032;6.356;2023-04-03T14:36:38;2.93;;;1.10;;
10295;SDS011;5193;51.032;6.356;2023-04-03T14:39:06;4.07;;;1.30;;
10295;SDS011;5193;51.032;6.356;2023-04-03T14:41:33;2.27;;;1.10;;
10295;SDS011;5193;51.032;6.356;2023-04-03T14:43:59;2.33;;;1.00;;
10295;SDS011;5193;51.032;6.356;2023-04-03T14:46:29;3.03;;;1.37;;
10295;SDS011;5193;51.032;6.356;2023-04-03T14:49:00;4.40;;;1.30;;
10295;SDS011;5193;51.032;6.356;2023-04-03T14:51:26;2.07;;;1.17;;
10295;SDS011;5193;51.032;6.356;2023-04-03T14:53:52;5.20;;;1.70;;
10295;SDS011;5193;51.032;6.356;2023-04-03T14:56:19;2.60;;;1.17;;
10295;SDS011;5193;51.032;6.356;2023-04-03T14:58:50;2.37;;;1.00;;
10295;SDS011;5193;51.032;6.356;2023-04-03T15:01:20;2.43;;;1.23;;
10295;SDS011;5193;51.032;6.356;2023-04-03T15:03:46;2.13;;;1.10;;
10295;SDS011;5193;51.032;6.356;2023-04-03T15:06:12;5.30;;;2.13;;
10295;SDS011;5193;51.032;6.356;2023-04-03T15:08:39;2.87;;;1.30;;
10295;SDS011;5193;51.032;6.356;2023-04-03T15:11:06;4.47;;;1.40;;
10295;SDS011;5193;51.032;6.356;2023-04-03T15:13:33;4.93;;;1.20;;
10295;SDS011;5193;51.032;6.356;2023-04-03T15:15:58;4.03;;;1.30;;
10295;SDS011;5193;51.032;6.356;2023-04-03T15:18:25;2.73;;;1.50;;
10295;SDS011;5193;51.032;6.356;2023-04-03T15:20:52;3.20;;;1.50;;
10295;SDS011;5193;51.032;6.356;2023-04-03T15:23:19;3.23;;;1.23;;
10295;SDS011;5193;51.032;6.356;2023-04-03T15:25:46;5.57;;;1.40;;
10295;SDS011;5193;51.032;6.356;2023-04-03T15:28:23;4.33;;;1.50;;
10295;SDS011;5193;51.032;6.356;2023-04-03T15:30:53;4.93;;;1.70;;
10295;SDS011;5193;51.032;6.356;2023-04-03T15:33:19;5.80;;;1.10;;
10295;SDS011;5193;51.032;6.356;2023-04-03T15:35:45;2.00;;;1.27;;
10295;SDS011;5193;51.032;6.356;2023-04-03T15:38:10;3.33;;;1.40;;
10295;SDS011;5193;51.032;6.356;2023-04-03T15:40:36;3.30;;;1.10;;
10295;SDS011;5193;51.032;6.356;2023-04-03T15:43:02;3.37;;;1.13;;
10295;SDS011;5193;51.032;6.356;2023-04-03T15:45:28;3.10;;;1.13;;
10295;SDS011;5193;51.032;6.356;2023-04-03T15:47:55;2.83;;;1.30;;
10295;SDS011;5193;51.032;6.356;2023-04-03T15:50:21;2.80;;;1.10;;
10295;SDS011;5193;51.032;6.356;2023-04-03T15:52:48;2.40;;;1.07;;
10295;SDS011;5193;51.032;6.356;2023-04-03T15:55:19;2.07;;;1.00;;
10295;SDS011;5193;51.032;6.356;2023-04-03T15:57:55;1.97;;;1.20;;
10295;SDS011;5193;51.032;6.356;2023-04-03T16:00:21;5.00;;;1.37;;
10295;SDS011;5193;51.032;6.356;2023-04-03T16:02:48;4.57;;;1.37;;
10295;SDS011;5193;51.032;6.356;2023-04-03T16:05:17;3.70;;;1.30;;
10295;SDS011;5193;51.032;6.356;2023-04-03T16:07:43;2.50;;;1.10;;
10295;SDS011;5193;51.032;6.356;2023-04-03T16:10:11;3.10;;;1.37;;
10295;SDS011;5193;51.032;6.356;2023-04-03T16:12:37;2.73;;;1.40;;
10295;SDS011;5193;51.032;6.356;2023-04-03T16:15:03;3.40;;;1.50;;
10295;SDS011;5193;51.032;6.356;2023-04-03T16:17:31;4.67;;;1.00;;
10295;SDS011;5193;51.032;6.356;2023-04-03T16:19:57;3.07;;;0.90;;
10295;SDS011;5193;51.032;6.356;2023-04-03T16:22:25;3.10;;;1.10;;
10295;SDS011;5193;51.032;6.356;2023-04-03T16:24:52;4.27;;;1.07;;
10295;SDS011;5193;51.032;6.356;2023-04-03T16:27:18;4.27;;;1.40;;
10295;SDS011;5193;51.032;6.356;2023-04-03T16:29:44;7.20;;;1.50;;
10295;SDS011;5193;51.032;6.356;2023-04-03T16:32:10;4.03;;;1.50;;
10295;SDS011;5193;51.032;6.356;2023-04-03T16:34:37;6.40;;;1.93;;
10295;SDS011;5193;51.032;6.356;2023-04-03T16:37:03;5.73;;;2.00;;
10295;SDS011;5193;51.032;6.356;2023-04-03T16:39:28;4.80;;;1.50;;
10295;SDS011;5193;51.032;6.356;2023-04-03T16:41:54;2.90;;;1.10;;
10295;SDS011;5193;51.032;6.356;2023-04-03T16:44:20;2.40;;;1.13;;
10295;SDS011;5193;51.032;6.356;2023-04-03T16:46:45;8.93;;;1.40;;
10295;SDS011;5193;51.032;6.356;2023-04-03T16:49:11;6.50;;;1.50;;
10295;SDS011;5193;51.032;6.356;2023-04-03T16:51:36;3.20;;;1.30;;
10295;SDS011;5193;51.032;6.356;2023-04-03T16:54:02;5.77;;;1.27;;
10295;SDS011;5193;51.032;6.356;2023-04-03T16:56:27;8.33;;;1.40;;
10295;SDS011;5193;51.032;6.356;2023-04-03T16:58:53;9.83;;;1.40;;
10295;SDS011;5193;51.032;6.356;2023-04-03T17:01:19;5.23;;;1.57;;